Syosyun — JD2406 — position and weather

sailwx.info

Track history (hours):
 
Tides and Currents Weather Stations Pressure Air Temp Water Temp Dewpoint Dewpoint Depression Visibility Wind Speed Wind Dir Waves Ship Positions

Syosyun

Last reported at 2018-Apr-21 05:58 UTC. Time now 2018-Apr-21 06:03 UTC.
Position N 34°40' E 134°47'.

Length 74 m; draft 4.2 m.

Type: Cargo ship. MMSI: 431000201.

Date/timePositionNaut miles runAvg speedWind from/ knotsBaromVisibWave heightAir tempDewpointWater temp
2018-Apr-21 05:58N 34°40' E 134°47'0 0.1
2018-Apr-21 05:28N 34°40' E 134°47'0 0.0
2018-Apr-21 04:59N 34°40' E 134°47'0 0.1
2018-Apr-21 04:28N 34°40' E 134°47'0 0.0
2018-Apr-21 03:58N 34°40' E 134°47'0 0.0
2018-Apr-21 03:28N 34°40' E 134°47'0 0.0
2018-Apr-21 02:58N 34°40' E 134°47'0 0.0
2018-Apr-21 02:28N 34°40' E 134°47'0 0.0
2018-Apr-21 01:49N 34°40' E 134°47'0 0.0
2018-Apr-21 01:28N 34°40' E 134°47'0 0.0
2018-Apr-21 00:58N 34°40' E 134°47'0 0.0
2018-Apr-21 00:25N 34°40' E 134°47'0 0.1
2018-Apr-20 23:55N 34°40' E 134°47'2 5.0
2018-Apr-20 23:30N 34°39' E 134°49'510.4
2018-Apr-20 23:00N 34°37' E 134°55'510.3
2018-Apr-20 22:30N 34°37' E 135°01'4 8.4
2018-Apr-20 22:01N 34°35' E 135°05'5 9.6
2018-Apr-20 21:30N 34°31' E 135°04'510.7
2018-Apr-20 21:01N 34°25' E 135°02'510.6
2018-Apr-20 20:31N 34°20' E 135°01'5 9.7
2018-Apr-20 20:01N 34°16' E 134°59'510.6
2018-Apr-20 19:31N 34°10' E 135°00'611.3
2018-Apr-20 19:00N 34°05' E 135°01'611.2
2018-Apr-20 18:31N 33°59' E 135°01'510.7
2018-Apr-20 18:01N 33°54' E 135°02'610.8
2018-Apr-20 17:30N 33°49' E 135°05'83 8.7
2018-Apr-20 07:56N 34°05' E 136°43'3110.8
2018-Apr-20 05:02N 34°32' E 137°02'411.5
2018-Apr-20 04:40N 34°35' E 136°58'211.3
2018-Apr-20 04:29N 34°36' E 136°56'511.5
2018-Apr-20 04:00N 34°40' E 136°51'611.4
2018-Apr-20 03:30N 34°45' E 136°48'611.2
2018-Apr-20 03:00N 34°50' E 136°46'611.3
2018-Apr-20 02:30N 34°56' E 136°46'611.5
2018-Apr-20 02:00N 35°00' E 136°50'3 6.7
2018-Apr-20 01:30N 35°03' E 136°53'0 0.0
2018-Apr-20 01:00N 35°03' E 136°53'0 0.0
2018-Apr-20 00:30N 35°03' E 136°53'0 0.0
2018-Apr-19 23:56N 35°03' E 136°53'0 0.0
2018-Apr-19 23:29N 35°03' E 136°53'0 0.0
2018-Apr-19 23:00N 35°03' E 136°53'1 3.0
2018-Apr-19 22:30N 35°03' E 136°52'1 2.5
2018-Apr-19 22:00N 35°05' E 136°52'0 0.0
2018-Apr-19 21:30N 35°05' E 136°52'0 0.0
2018-Apr-19 21:00N 35°05' E 136°52'0 0.0
2018-Apr-19 20:29N 35°05' E 136°52'0 0.0
2018-Apr-19 20:00N 35°05' E 136°52'0 0.0
2018-Apr-19 19:30N 35°05' E 136°52'0 0.0
2018-Apr-19 19:00N 35°05' E 136°52'0 0.0
2018-Apr-19 18:30N 35°05' E 136°52'0 0.0
2018-Apr-19 18:00N 35°05' E 136°52'0 0.0
2018-Apr-19 17:30N 35°05' E 136°52'0 0.0
2018-Apr-19 17:00N 35°05' E 136°52'0 0.0
2018-Apr-19 16:30N 35°05' E 136°52'0 0.0
2018-Apr-19 16:00N 35°05' E 136°52'0 0.0
2018-Apr-19 15:30N 35°05' E 136°52'0 0.0
2018-Apr-19 15:00N 35°05' E 136°52'0 0.0
2018-Apr-19 14:30N 35°05' E 136°52'0 0.0
2018-Apr-19 14:00N 35°05' E 136°52'0 0.0
2018-Apr-19 13:29N 35°05' E 136°52'0 0.0
2018-Apr-19 13:00N 35°05' E 136°52'0 0.0
2018-Apr-19 12:30N 35°05' E 136°52'0 0.0
2018-Apr-19 12:00N 35°05' E 136°52'0 0.0
2018-Apr-19 11:30N 35°05' E 136°52'0 0.0
2018-Apr-19 11:00N 35°05' E 136°52'0 0.0
2018-Apr-19 10:30N 35°05' E 136°52'0 0.0
2018-Apr-19 10:00N 35°05' E 136°52'0 0.0
2018-Apr-19 09:29N 35°05' E 136°52'0 0.0
2018-Apr-19 09:00N 35°05' E 136°52'0 0.0
2018-Apr-19 08:30N 35°05' E 136°52'0 0.0
2018-Apr-19 07:58N 35°05' E 136°52'0 0.0
2018-Apr-19 07:30N 35°05' E 136°52'0 0.0
2018-Apr-19 07:00N 35°05' E 136°52'0 0.0
2018-Apr-19 06:29N 35°05' E 136°52'0 0.7
2018-Apr-19 06:00N 35°04' E 136°52'2 3.6
2018-Apr-19 05:29N 35°03' E 136°53'0 0.0
2018-Apr-19 04:59N 35°03' E 136°53'0 0.0
2018-Apr-19 04:29N 35°03' E 136°53'0 0.0
2018-Apr-19 03:59N 35°03' E 136°53'0 0.0
2018-Apr-19 03:29N 35°03' E 136°53'0 0.0
2018-Apr-19 02:59N 35°03' E 136°53'0 0.0
2018-Apr-19 02:29N 35°03' E 136°53'0 0.0
2018-Apr-19 01:59N 35°03' E 136°53'0 0.0
2018-Apr-19 01:29N 35°03' E 136°53'0 0.0
2018-Apr-19 00:59N 35°03' E 136°53'0 0.0
2018-Apr-19 00:29N 35°03' E 136°53'0 0.0
2018-Apr-18 23:59N 35°03' E 136°53'0 0.0
2018-Apr-18 23:28N 35°03' E 136°53'0 0.0
2018-Apr-18 23:00N 35°03' E 136°53'1 2.3
2018-Apr-18 22:30N 35°02' E 136°52'2 2.9
2018-Apr-18 21:59N 35°01' E 136°51'0 0.0
2018-Apr-18 21:29N 35°01' E 136°51'0 0.0
2018-Apr-18 20:59N 35°01' E 136°51'0 0.0
2018-Apr-18 20:29N 35°01' E 136°51'0 0.0
2018-Apr-18 19:59N 35°01' E 136°51'0 0.0
2018-Apr-18 19:29N 35°01' E 136°51'0 0.0
2018-Apr-18 18:59N 35°01' E 136°51'0 0.0
2018-Apr-18 18:29N 35°01' E 136°51'0 0.0
2018-Apr-18 17:59N 35°01' E 136°51'0 0.0
2018-Apr-18 17:29N 35°01' E 136°51'0 0.0
2018-Apr-18 16:59N 35°01' E 136°51'0 0.0
2018-Apr-18 16:29N 35°01' E 136°51'0 0.0
2018-Apr-18 15:59N 35°01' E 136°51'0 0.0
2018-Apr-18 15:29N 35°01' E 136°51'0 0.0
2018-Apr-18 14:59N 35°01' E 136°51'0 0.0
2018-Apr-18 14:29N 35°01' E 136°51'0 0.0
2018-Apr-18 13:59N 35°01' E 136°51'0 0.0
2018-Apr-18 13:26N 35°01' E 136°51'1 2.5
2018-Apr-18 13:01N 35°02' E 136°51'4 8.3
2018-Apr-18 12:30N 34°59' E 136°49'5 9.7
2018-Apr-18 12:00N 34°54' E 136°47'5 9.7
2018-Apr-18 11:30N 34°49' E 136°47'5 9.8
2018-Apr-18 11:01N 34°45' E 136°50'510.0
2018-Apr-18 10:31N 34°41' E 136°53'610.4
2018-Apr-18 09:54N 34°36' E 136°58'57 2.0
2018-Apr-17 06:07N 33°53' E 136°14'86 3.1
2018-Apr-16 02:30N 34°43' E 134°48'3 5.2
2018-Apr-16 01:59N 34°41' E 134°47'0 0.0
2018-Apr-16 01:29N 34°41' E 134°47'2 4.0
2018-Apr-16 01:00N 34°39' E 134°49'611.8
2018-Apr-16 00:30N 34°37' E 134°56'612.8
2018-Apr-16 00:01N 34°36' E 135°03'611.4
2018-Apr-15 23:30N 34°38' E 135°10'4 7.1
2018-Apr-15 23:00N 34°41' E 135°12'0 0.0
2018-Apr-15 22:31N 34°41' E 135°12'0 0.0
2018-Apr-15 22:00N 34°41' E 135°12'0 0.0
2018-Apr-15 21:31N 34°41' E 135°12'0 0.0
2018-Apr-15 21:00N 34°41' E 135°12'0 0.0
2018-Apr-15 20:30N 34°41' E 135°12'0 0.0
2018-Apr-15 20:00N 34°41' E 135°12'0 0.0
2018-Apr-15 19:30N 34°41' E 135°12'0 0.0
2018-Apr-15 19:00N 34°41' E 135°12'0 0.0
2018-Apr-15 18:30N 34°41' E 135°12'0 0.0
2018-Apr-15 18:00N 34°41' E 135°12'0 0.0
2018-Apr-15 17:30N 34°41' E 135°12'0 0.0
2018-Apr-15 17:00N 34°41' E 135°12'0 0.0
2018-Apr-15 16:30N 34°41' E 135°12'0 0.0
2018-Apr-15 16:00N 34°41' E 135°12'0 0.0
2018-Apr-15 15:30N 34°41' E 135°12'0 0.0
2018-Apr-15 15:00N 34°41' E 135°12'0 0.0
2018-Apr-15 14:31N 34°41' E 135°12'0 0.0
2018-Apr-15 14:01N 34°41' E 135°12'0 0.0
2018-Apr-15 13:31N 34°41' E 135°12'0 0.0
2018-Apr-15 13:01N 34°41' E 135°12'0 0.0
2018-Apr-15 12:30N 34°41' E 135°12'0 0.0
2018-Apr-15 12:00N 34°41' E 135°12'0 0.0
2018-Apr-15 11:30N 34°41' E 135°12'0 0.0
2018-Apr-15 11:01N 34°41' E 135°12'0 0.0
2018-Apr-15 10:31N 34°41' E 135°12'0 0.0
2018-Apr-15 10:01N 34°41' E 135°12'0 0.0
2018-Apr-15 09:31N 34°41' E 135°12'0 0.0
2018-Apr-15 09:00N 34°41' E 135°12'0 0.0
2018-Apr-15 08:30N 34°41' E 135°12'0 0.0
2018-Apr-15 08:00N 34°41' E 135°12'0 0.0
2018-Apr-15 07:30N 34°41' E 135°12'0 0.0
2018-Apr-15 07:00N 34°41' E 135°12'0 0.0
2018-Apr-15 06:31N 34°41' E 135°12'0 0.0
2018-Apr-15 06:00N 34°41' E 135°12'0 0.0
2018-Apr-15 05:30N 34°41' E 135°12'0 0.0
2018-Apr-15 05:00N 34°41' E 135°12'0 0.0
2018-Apr-15 04:31N 34°41' E 135°12'0 0.0
2018-Apr-15 04:00N 34°41' E 135°12'0 0.0
2018-Apr-15 03:30N 34°41' E 135°12'0 0.0
2018-Apr-15 03:00N 34°41' E 135°12'0 0.0
2018-Apr-15 02:30N 34°41' E 135°12'0 0.0
2018-Apr-15 02:01N 34°41' E 135°12'0 0.0
2018-Apr-15 01:30N 34°41' E 135°12'0 0.0
2018-Apr-15 01:00N 34°41' E 135°12'0 0.0
2018-Apr-15 00:30N 34°41' E 135°12'0 0.0
2018-Apr-15 00:00N 34°41' E 135°12'0 0.4
2018-Apr-14 23:30N 34°41' E 135°12'1 1.3
2018-Apr-14 23:00N 34°40' E 135°12'0 0.0
2018-Apr-14 22:30N 34°40' E 135°12'0 0.0
2018-Apr-14 22:00N 34°40' E 135°12'0 0.1
2018-Apr-14 21:30N 34°40' E 135°12'0 0.0
2018-Apr-14 21:00N 34°40' E 135°12'0 0.1
2018-Apr-14 20:30N 34°40' E 135°12'0 0.0
2018-Apr-14 20:00N 34°40' E 135°12'0 0.0
2018-Apr-14 19:30N 34°40' E 135°12'0 0.0
2018-Apr-14 19:00N 34°40' E 135°12'0 0.0
2018-Apr-14 18:30N 34°40' E 135°12'0 0.0
2018-Apr-14 18:00N 34°40' E 135°12'0 0.0
2018-Apr-14 17:30N 34°40' E 135°12'0 0.2
2018-Apr-14 17:00N 34°40' E 135°12'4 8.4
2018-Apr-14 16:30N 34°36' E 135°11'510.6
2018-Apr-14 16:00N 34°31' E 135°09'510.7
2018-Apr-14 15:30N 34°26' E 135°07'611.2
2018-Apr-14 15:00N 34°20' E 135°05'5 9.4
2018-Apr-14 14:30N 34°16' E 135°03'510.5
2018-Apr-14 14:00N 34°11' E 135°03'611.3
2018-Apr-14 13:30N 34°05' E 135°03'611.7
2018-Apr-14 13:00N 33°59' E 135°02'611.3
2018-Apr-14 12:30N 33°53' E 135°02'510.1
2018-Apr-14 11:59N 33°49' E 135°06'83 8.6
2018-Apr-14 02:21N 34°06' E 136°43'73 9.7
2018-Apr-13 18:51N 34°34' E 138°05'4 9.9
2018-Apr-13 18:30N 34°34' E 138°09'1510.9
2018-Apr-13 17:08N 34°35' E 138°27'311.1
2018-Apr-13 16:54N 34°35' E 138°30'2010.6
2018-Apr-13 15:01N 34°36' E 138°55'010.1
2018-Apr-13 14:58N 34°36' E 138°55'710.7
2018-Apr-13 14:18N 34°41' E 139°01'311.2
2018-Apr-13 14:00N 34°43' E 139°03'611.5
2018-Apr-13 13:29N 34°49' E 139°07'1010.6
2018-Apr-13 12:32N 34°56' E 139°16'5 9.9
2018-Apr-13 12:04N 34°58' E 139°21'1 9.1
2018-Apr-13 12:00N 34°58' E 139°21'5 9.1
2018-Apr-13 11:30N 35°00' E 139°26'5 9.1
2018-Apr-13 10:59N 35°03' E 139°31'1010.4
2018-Apr-13 10:00N 35°08' E 139°42'511.0
2018-Apr-13 09:30N 35°12' E 139°46'611.0
2018-Apr-13 09:00N 35°18' E 139°45'611.1
2018-Apr-13 08:30N 35°23' E 139°42'611.1
2018-Apr-13 08:00N 35°27' E 139°47'611.6
2018-Apr-13 07:30N 35°31' E 139°52'611.3
2018-Apr-13 07:00N 35°35' E 139°56'5 0.7
2018-Apr-12 23:20N 35°41' E 139°58'2 5.2
2018-Apr-12 23:00N 35°39' E 139°58'2 3.5
2018-Apr-12 22:29N 35°37' E 139°58'0 0.0
2018-Apr-12 21:59N 35°37' E 139°58'0 0.0
2018-Apr-12 21:30N 35°37' E 139°58'0 0.0
2018-Apr-12 20:59N 35°37' E 139°58'0 0.0
2018-Apr-12 20:30N 35°37' E 139°58'0 0.0
2018-Apr-12 19:59N 35°37' E 139°58'0 0.0
2018-Apr-12 19:29N 35°37' E 139°58'0 0.0
2018-Apr-12 18:53N 35°37' E 139°58'0 0.1
2018-Apr-12 18:18N 35°37' E 139°58'3 9.0
2018-Apr-12 18:00N 35°35' E 139°57'5 9.9
2018-Apr-12 17:29N 35°30' E 139°54'510.2
2018-Apr-12 17:00N 35°27' E 139°49'510.3
2018-Apr-12 16:30N 35°23' E 139°46'510.1
2018-Apr-12 16:00N 35°18' E 139°45'510.5
2018-Apr-12 15:30N 35°13' E 139°47'510.3
2018-Apr-12 15:00N 35°08' E 139°45'5 9.7
2018-Apr-12 14:30N 35°05' E 139°41'510.6
2018-Apr-12 14:00N 35°01' E 139°36'611.2
2018-Apr-12 13:29N 34°57' E 139°31'812.6
2018-Apr-12 12:51N 34°52' E 139°23'612.6
2018-Apr-12 12:23N 34°49' E 139°17'511.6
2018-Apr-12 11:56N 34°45' E 139°12'611.3
2018-Apr-12 11:25N 34°42' E 139°07'511.9
2018-Apr-12 11:00N 34°39' E 139°02'612.5
2018-Apr-12 10:29N 34°35' E 138°56'712.1
2018-Apr-12 09:55N 34°35' E 138°47'611.2
2018-Apr-12 09:25N 34°34' E 138°40'511.2
2018-Apr-12 08:58N 34°34' E 138°34'510.9
2018-Apr-12 08:29N 34°33' E 138°28'5511.0
2018-Apr-12 03:31N 34°34' E 137°21'012.3
2018-Apr-12 03:30N 34°34' E 137°21'610.9
2018-Apr-12 02:59N 34°34' E 137°14'10 4.4
2018-Apr-12 00:40N 34°41' E 137°05'0 0.1
2018-Apr-11 22:57N 34°41' E 137°06'0 0.0
2018-Apr-11 21:15N 34°41' E 137°06'0 0.0
2018-Apr-11 19:57N 34°41' E 137°06'0 0.0
2018-Apr-11 18:15N 34°41' E 137°06'0 0.0
2018-Apr-11 17:57N 34°41' E 137°06'0 0.0
2018-Apr-11 10:39N 34°41' E 137°06'0 0.0
2018-Apr-11 10:27N 34°41' E 137°06'0 0.0
2018-Apr-11 09:15N 34°41' E 137°06'0 0.0
2018-Apr-11 08:39N 34°41' E 137°06'0 0.0
2018-Apr-11 08:21N 34°41' E 137°06'0 0.0
2018-Apr-11 07:45N 34°41' E 137°06'  
Track history (hours):
 
Tides and Currents Weather Stations Pressure Air Temp Water Temp Dewpoint Dewpoint Depression Visibility Wind Speed Wind Dir Waves Ship Positions

Syosyun

Last reported at 2018-Apr-21 05:58 UTC. Time now 2018-Apr-21 06:03 UTC.
Position N 34°40' E 134°47'.

Length 74 m; draft 4.2 m.

Type: Cargo ship. MMSI: 431000201.

Date/timePositionNaut miles runAvg speedWind from/ knotsBaromVisibWave heightAir tempDewpointWater temp
2018-Apr-21 05:58N 34°40' E 134°47'0 0.1
2018-Apr-21 05:28N 34°40' E 134°47'0 0.0
2018-Apr-21 04:59N 34°40' E 134°47'0 0.1
2018-Apr-21 04:28N 34°40' E 134°47'0 0.0
2018-Apr-21 03:58N 34°40' E 134°47'0 0.0
2018-Apr-21 03:28N 34°40' E 134°47'0 0.0
2018-Apr-21 02:58N 34°40' E 134°47'0 0.0
2018-Apr-21 02:28N 34°40' E 134°47'0 0.0
2018-Apr-21 01:49N 34°40' E 134°47'0 0.0
2018-Apr-21 01:28N 34°40' E 134°47'0 0.0
2018-Apr-21 00:58N 34°40' E 134°47'0 0.0
2018-Apr-21 00:25N 34°40' E 134°47'0 0.1
2018-Apr-20 23:55N 34°40' E 134°47'2 5.0
2018-Apr-20 23:30N 34°39' E 134°49'510.4
2018-Apr-20 23:00N 34°37' E 134°55'510.3
2018-Apr-20 22:30N 34°37' E 135°01'4 8.4
2018-Apr-20 22:01N 34°35' E 135°05'5 9.6
2018-Apr-20 21:30N 34°31' E 135°04'510.7
2018-Apr-20 21:01N 34°25' E 135°02'510.6
2018-Apr-20 20:31N 34°20' E 135°01'5 9.7
2018-Apr-20 20:01N 34°16' E 134°59'510.6
2018-Apr-20 19:31N 34°10' E 135°00'611.3
2018-Apr-20 19:00N 34°05' E 135°01'611.2
2018-Apr-20 18:31N 33°59' E 135°01'510.7
2018-Apr-20 18:01N 33°54' E 135°02'610.8
2018-Apr-20 17:30N 33°49' E 135°05'83 8.7
2018-Apr-20 07:56N 34°05' E 136°43'3110.8
2018-Apr-20 05:02N 34°32' E 137°02'411.5
2018-Apr-20 04:40N 34°35' E 136°58'211.3
2018-Apr-20 04:29N 34°36' E 136°56'511.5
2018-Apr-20 04:00N 34°40' E 136°51'611.4
2018-Apr-20 03:30N 34°45' E 136°48'611.2
2018-Apr-20 03:00N 34°50' E 136°46'611.3
2018-Apr-20 02:30N 34°56' E 136°46'611.5
2018-Apr-20 02:00N 35°00' E 136°50'3 6.7
2018-Apr-20 01:30N 35°03' E 136°53'0 0.0
2018-Apr-20 01:00N 35°03' E 136°53'0 0.0
2018-Apr-20 00:30N 35°03' E 136°53'0 0.0
2018-Apr-19 23:56N 35°03' E 136°53'0 0.0
2018-Apr-19 23:29N 35°03' E 136°53'0 0.0
2018-Apr-19 23:00N 35°03' E 136°53'1 3.0
2018-Apr-19 22:30N 35°03' E 136°52'1 2.5
2018-Apr-19 22:00N 35°05' E 136°52'0 0.0
2018-Apr-19 21:30N 35°05' E 136°52'0 0.0
2018-Apr-19 21:00N 35°05' E 136°52'0 0.0
2018-Apr-19 20:29N 35°05' E 136°52'0 0.0
2018-Apr-19 20:00N 35°05' E 136°52'0 0.0
2018-Apr-19 19:30N 35°05' E 136°52'0 0.0
2018-Apr-19 19:00N 35°05' E 136°52'0 0.0
2018-Apr-19 18:30N 35°05' E 136°52'0 0.0
2018-Apr-19 18:00N 35°05' E 136°52'0 0.0
2018-Apr-19 17:30N 35°05' E 136°52'0 0.0
2018-Apr-19 17:00N 35°05' E 136°52'0 0.0
2018-Apr-19 16:30N 35°05' E 136°52'0 0.0
2018-Apr-19 16:00N 35°05' E 136°52'0 0.0
2018-Apr-19 15:30N 35°05' E 136°52'0 0.0
2018-Apr-19 15:00N 35°05' E 136°52'0 0.0
2018-Apr-19 14:30N 35°05' E 136°52'0 0.0
2018-Apr-19 14:00N 35°05' E 136°52'0 0.0
2018-Apr-19 13:29N 35°05' E 136°52'0 0.0
2018-Apr-19 13:00N 35°05' E 136°52'0 0.0
2018-Apr-19 12:30N 35°05' E 136°52'0 0.0
2018-Apr-19 12:00N 35°05' E 136°52'0 0.0
2018-Apr-19 11:30N 35°05' E 136°52'0 0.0
2018-Apr-19 11:00N 35°05' E 136°52'0 0.0
2018-Apr-19 10:30N 35°05' E 136°52'0 0.0
2018-Apr-19 10:00N 35°05' E 136°52'0 0.0
2018-Apr-19 09:29N 35°05' E 136°52'0 0.0
2018-Apr-19 09:00N 35°05' E 136°52'0 0.0
2018-Apr-19 08:30N 35°05' E 136°52'0 0.0
2018-Apr-19 07:58N 35°05' E 136°52'0 0.0
2018-Apr-19 07:30N 35°05' E 136°52'0 0.0
2018-Apr-19 07:00N 35°05' E 136°52'0 0.0
2018-Apr-19 06:29N 35°05' E 136°52'0 0.7
2018-Apr-19 06:00N 35°04' E 136°52'2 3.6
2018-Apr-19 05:29N 35°03' E 136°53'0 0.0
2018-Apr-19 04:59N 35°03' E 136°53'0 0.0
2018-Apr-19 04:29N 35°03' E 136°53'0 0.0
2018-Apr-19 03:59N 35°03' E 136°53'0 0.0
2018-Apr-19 03:29N 35°03' E 136°53'0 0.0
2018-Apr-19 02:59N 35°03' E 136°53'0 0.0
2018-Apr-19 02:29N 35°03' E 136°53'0 0.0
2018-Apr-19 01:59N 35°03' E 136°53'0 0.0
2018-Apr-19 01:29N 35°03' E 136°53'0 0.0
2018-Apr-19 00:59N 35°03' E 136°53'0 0.0
2018-Apr-19 00:29N 35°03' E 136°53'0 0.0
2018-Apr-18 23:59N 35°03' E 136°53'0 0.0
2018-Apr-18 23:28N 35°03' E 136°53'0 0.0
2018-Apr-18 23:00N 35°03' E 136°53'1 2.3
2018-Apr-18 22:30N 35°02' E 136°52'2 2.9
2018-Apr-18 21:59N 35°01' E 136°51'0 0.0
2018-Apr-18 21:29N 35°01' E 136°51'0 0.0
2018-Apr-18 20:59N 35°01' E 136°51'0 0.0
2018-Apr-18 20:29N 35°01' E 136°51'0 0.0
2018-Apr-18 19:59N 35°01' E 136°51'0 0.0
2018-Apr-18 19:29N 35°01' E 136°51'0 0.0
2018-Apr-18 18:59N 35°01' E 136°51'0 0.0
2018-Apr-18 18:29N 35°01' E 136°51'0 0.0
2018-Apr-18 17:59N 35°01' E 136°51'0 0.0
2018-Apr-18 17:29N 35°01' E 136°51'0 0.0
2018-Apr-18 16:59N 35°01' E 136°51'0 0.0
2018-Apr-18 16:29N 35°01' E 136°51'0 0.0
2018-Apr-18 15:59N 35°01' E 136°51'0 0.0
2018-Apr-18 15:29N 35°01' E 136°51'0 0.0
2018-Apr-18 14:59N 35°01' E 136°51'0 0.0
2018-Apr-18 14:29N 35°01' E 136°51'0 0.0
2018-Apr-18 13:59N 35°01' E 136°51'0 0.0
2018-Apr-18 13:26N 35°01' E 136°51'1 2.5
2018-Apr-18 13:01N 35°02' E 136°51'4 8.3
2018-Apr-18 12:30N 34°59' E 136°49'5 9.7
2018-Apr-18 12:00N 34°54' E 136°47'5 9.7
2018-Apr-18 11:30N 34°49' E 136°47'5 9.8
2018-Apr-18 11:01N 34°45' E 136°50'510.0
2018-Apr-18 10:31N 34°41' E 136°53'610.4
2018-Apr-18 09:54N 34°36' E 136°58'57 2.0
2018-Apr-17 06:07N 33°53' E 136°14'86 3.1
2018-Apr-16 02:30N 34°43' E 134°48'3 5.2
2018-Apr-16 01:59N 34°41' E 134°47'0 0.0
2018-Apr-16 01:29N 34°41' E 134°47'2 4.0
2018-Apr-16 01:00N 34°39' E 134°49'611.8
2018-Apr-16 00:30N 34°37' E 134°56'612.8
2018-Apr-16 00:01N 34°36' E 135°03'611.4
2018-Apr-15 23:30N 34°38' E 135°10'4 7.1
2018-Apr-15 23:00N 34°41' E 135°12'0 0.0
2018-Apr-15 22:31N 34°41' E 135°12'0 0.0
2018-Apr-15 22:00N 34°41' E 135°12'0 0.0
2018-Apr-15 21:31N 34°41' E 135°12'0 0.0
2018-Apr-15 21:00N 34°41' E 135°12'0 0.0
2018-Apr-15 20:30N 34°41' E 135°12'0 0.0
2018-Apr-15 20:00N 34°41' E 135°12'0 0.0
2018-Apr-15 19:30N 34°41' E 135°12'0 0.0
2018-Apr-15 19:00N 34°41' E 135°12'0 0.0
2018-Apr-15 18:30N 34°41' E 135°12'0 0.0
2018-Apr-15 18:00N 34°41' E 135°12'0 0.0
2018-Apr-15 17:30N 34°41' E 135°12'0 0.0
2018-Apr-15 17:00N 34°41' E 135°12'0 0.0
2018-Apr-15 16:30N 34°41' E 135°12'0 0.0
2018-Apr-15 16:00N 34°41' E 135°12'0 0.0
2018-Apr-15 15:30N 34°41' E 135°12'0 0.0
2018-Apr-15 15:00N 34°41' E 135°12'0 0.0
2018-Apr-15 14:31N 34°41' E 135°12'0 0.0
2018-Apr-15 14:01N 34°41' E 135°12'0 0.0
2018-Apr-15 13:31N 34°41' E 135°12'0 0.0
2018-Apr-15 13:01N 34°41' E 135°12'0 0.0
2018-Apr-15 12:30N 34°41' E 135°12'0 0.0
2018-Apr-15 12:00N 34°41' E 135°12'0 0.0
2018-Apr-15 11:30N 34°41' E 135°12'0 0.0
2018-Apr-15 11:01N 34°41' E 135°12'0 0.0
2018-Apr-15 10:31N 34°41' E 135°12'0 0.0
2018-Apr-15 10:01N 34°41' E 135°12'0 0.0
2018-Apr-15 09:31N 34°41' E 135°12'0 0.0
2018-Apr-15 09:00N 34°41' E 135°12'0 0.0
2018-Apr-15 08:30N 34°41' E 135°12'0 0.0
2018-Apr-15 08:00N 34°41' E 135°12'0 0.0
2018-Apr-15 07:30N 34°41' E 135°12'0 0.0
2018-Apr-15 07:00N 34°41' E 135°12'0 0.0
2018-Apr-15 06:31N 34°41' E 135°12'0 0.0
2018-Apr-15 06:00N 34°41' E 135°12'0 0.0
2018-Apr-15 05:30N 34°41' E 135°12'0 0.0
2018-Apr-15 05:00N 34°41' E 135°12'0 0.0
2018-Apr-15 04:31N 34°41' E 135°12'0 0.0
2018-Apr-15 04:00N 34°41' E 135°12'0 0.0
2018-Apr-15 03:30N 34°41' E 135°12'0 0.0
2018-Apr-15 03:00N 34°41' E 135°12'0 0.0
2018-Apr-15 02:30N 34°41' E 135°12'0 0.0
2018-Apr-15 02:01N 34°41' E 135°12'0 0.0
2018-Apr-15 01:30N 34°41' E 135°12'0 0.0
2018-Apr-15 01:00N 34°41' E 135°12'0 0.0
2018-Apr-15 00:30N 34°41' E 135°12'0 0.0
2018-Apr-15 00:00N 34°41' E 135°12'0 0.4
2018-Apr-14 23:30N 34°41' E 135°12'1 1.3
2018-Apr-14 23:00N 34°40' E 135°12'0 0.0
2018-Apr-14 22:30N 34°40' E 135°12'0 0.0
2018-Apr-14 22:00N 34°40' E 135°12'0 0.1
2018-Apr-14 21:30N 34°40' E 135°12'0 0.0
2018-Apr-14 21:00N 34°40' E 135°12'0 0.1
2018-Apr-14 20:30N 34°40' E 135°12'0 0.0
2018-Apr-14 20:00N 34°40' E 135°12'0 0.0
2018-Apr-14 19:30N 34°40' E 135°12'0 0.0
2018-Apr-14 19:00N 34°40' E 135°12'0 0.0
2018-Apr-14 18:30N 34°40' E 135°12'0 0.0
2018-Apr-14 18:00N 34°40' E 135°12'0 0.0
2018-Apr-14 17:30N 34°40' E 135°12'0 0.2
2018-Apr-14 17:00N 34°40' E 135°12'4 8.4
2018-Apr-14 16:30N 34°36' E 135°11'510.6
2018-Apr-14 16:00N 34°31' E 135°09'510.7
2018-Apr-14 15:30N 34°26' E 135°07'611.2
2018-Apr-14 15:00N 34°20' E 135°05'5 9.4
2018-Apr-14 14:30N 34°16' E 135°03'510.5
2018-Apr-14 14:00N 34°11' E 135°03'611.3
2018-Apr-14 13:30N 34°05' E 135°03'611.7
2018-Apr-14 13:00N 33°59' E 135°02'611.3
2018-Apr-14 12:30N 33°53' E 135°02'510.1
2018-Apr-14 11:59N 33°49' E 135°06'83 8.6
2018-Apr-14 02:21N 34°06' E 136°43'73 9.7
2018-Apr-13 18:51N 34°34' E 138°05'4 9.9
2018-Apr-13 18:30N 34°34' E 138°09'1510.9
2018-Apr-13 17:08N 34°35' E 138°27'311.1
2018-Apr-13 16:54N 34°35' E 138°30'2010.6
2018-Apr-13 15:01N 34°36' E 138°55'010.1
2018-Apr-13 14:58N 34°36' E 138°55'710.7
2018-Apr-13 14:18N 34°41' E 139°01'311.2
2018-Apr-13 14:00N 34°43' E 139°03'611.5
2018-Apr-13 13:29N 34°49' E 139°07'1010.6
2018-Apr-13 12:32N 34°56' E 139°16'5 9.9
2018-Apr-13 12:04N 34°58' E 139°21'1 9.1
2018-Apr-13 12:00N 34°58' E 139°21'5 9.1
2018-Apr-13 11:30N 35°00' E 139°26'5 9.1
2018-Apr-13 10:59N 35°03' E 139°31'1010.4
2018-Apr-13 10:00N 35°08' E 139°42'511.0
2018-Apr-13 09:30N 35°12' E 139°46'611.0
2018-Apr-13 09:00N 35°18' E 139°45'611.1
2018-Apr-13 08:30N 35°23' E 139°42'611.1
2018-Apr-13 08:00N 35°27' E 139°47'611.6
2018-Apr-13 07:30N 35°31' E 139°52'611.3
2018-Apr-13 07:00N 35°35' E 139°56'5 0.7
2018-Apr-12 23:20N 35°41' E 139°58'2 5.2
2018-Apr-12 23:00N 35°39' E 139°58'2 3.5
2018-Apr-12 22:29N 35°37' E 139°58'0 0.0
2018-Apr-12 21:59N 35°37' E 139°58'0 0.0
2018-Apr-12 21:30N 35°37' E 139°58'0 0.0
2018-Apr-12 20:59N 35°37' E 139°58'0 0.0
2018-Apr-12 20:30N 35°37' E 139°58'0 0.0
2018-Apr-12 19:59N 35°37' E 139°58'0 0.0
2018-Apr-12 19:29N 35°37' E 139°58'0 0.0
2018-Apr-12 18:53N 35°37' E 139°58'0 0.1
2018-Apr-12 18:18N 35°37' E 139°58'3 9.0
2018-Apr-12 18:00N 35°35' E 139°57'5 9.9
2018-Apr-12 17:29N 35°30' E 139°54'510.2
2018-Apr-12 17:00N 35°27' E 139°49'510.3
2018-Apr-12 16:30N 35°23' E 139°46'510.1
2018-Apr-12 16:00N 35°18' E 139°45'510.5
2018-Apr-12 15:30N 35°13' E 139°47'510.3
2018-Apr-12 15:00N 35°08' E 139°45'5 9.7
2018-Apr-12 14:30N 35°05' E 139°41'510.6
2018-Apr-12 14:00N 35°01' E 139°36'611.2
2018-Apr-12 13:29N 34°57' E 139°31'812.6
2018-Apr-12 12:51N 34°52' E 139°23'612.6
2018-Apr-12 12:23N 34°49' E 139°17'511.6
2018-Apr-12 11:56N 34°45' E 139°12'611.3
2018-Apr-12 11:25N 34°42' E 139°07'511.9
2018-Apr-12 11:00N 34°39' E 139°02'612.5
2018-Apr-12 10:29N 34°35' E 138°56'712.1
2018-Apr-12 09:55N 34°35' E 138°47'611.2
2018-Apr-12 09:25N 34°34' E 138°40'511.2
2018-Apr-12 08:58N 34°34' E 138°34'510.9
2018-Apr-12 08:29N 34°33' E 138°28'5511.0
2018-Apr-12 03:31N 34°34' E 137°21'012.3
2018-Apr-12 03:30N 34°34' E 137°21'610.9
2018-Apr-12 02:59N 34°34' E 137°14'10 4.4
2018-Apr-12 00:40N 34°41' E 137°05'0 0.1
2018-Apr-11 22:57N 34°41' E 137°06'0 0.0
2018-Apr-11 21:15N 34°41' E 137°06'0 0.0
2018-Apr-11 19:57N 34°41' E 137°06'0 0.0
2018-Apr-11 18:15N 34°41' E 137°06'0 0.0
2018-Apr-11 17:57N 34°41' E 137°06'0 0.0
2018-Apr-11 10:39N 34°41' E 137°06'0 0.0
2018-Apr-11 10:27N 34°41' E 137°06'0 0.0
2018-Apr-11 09:15N 34°41' E 137°06'0 0.0
2018-Apr-11 08:39N 34°41' E 137°06'0 0.0
2018-Apr-11 08:21N 34°41' E 137°06'0 0.0
2018-Apr-11 07:45N 34°41' E 137°06'  

Dump ship's entire track history